sensor_id;sensor_type;location;lat;lon;timestamp;temperature;humidity
8858;DHT22;4465;50.904;4.696;2023-11-22T15:19:58;7.30;99.90
8858;DHT22;4465;50.904;4.696;2023-11-22T15:22:24;7.40;99.90
8858;DHT22;4465;50.904;4.696;2023-11-22T15:24:50;7.30;99.90
8858;DHT22;4465;50.904;4.696;2023-11-22T15:27:16;7.30;99.90
8858;DHT22;4465;50.904;4.696;2023-11-22T15:29:42;7.30;99.90
8858;DHT22;4465;50.904;4.696;2023-11-22T15:32:08;7.30;99.90
8858;DHT22;4465;50.904;4.696;2023-11-22T15:34:38;7.30;99.90
8858;DHT22;4465;50.904;4.696;2023-11-22T15:37:04;7.30;99.90
8858;DHT22;4465;50.904;4.696;2023-11-22T15:39:30;7.20;99.90
8858;DHT22;4465;50.904;4.696;2023-11-22T15:41:56;7.20;99.90
8858;DHT22;4465;50.904;4.696;2023-11-22T15:44:24;7.20;99.90
8858;DHT22;4465;50.904;4.696;2023-11-22T15:46:52;7.20;99.90
8858;DHT22;4465;50.904;4.696;2023-11-22T15:49:20;7.20;99.90
8858;DHT22;4465;50.904;4.696;2023-11-22T15:51:48;7.20;99.90
8858;DHT22;4465;50.904;4.696;2023-11-22T15:54:16;7.20;99.90
8858;DHT22;4465;50.904;4.696;2023-11-22T15:56:46;7.20;99.90
8858;DHT22;4465;50.904;4.696;2023-11-22T15:59:14;7.20;99.90
8858;DHT22;4465;50.904;4.696;2023-11-22T16:01:42;7.20;99.90
8858;DHT22;4465;50.904;4.696;2023-11-22T16:04:08;7.20;99.90
8858;DHT22;4465;50.904;4.696;2023-11-22T16:06:34;7.20;99.90
8858;DHT22;4465;50.904;4.696;2023-11-22T16:09:03;7.20;99.90
8858;DHT22;4465;50.904;4.696;2023-11-22T16:11:33;7.20;99.90
8858;DHT22;4465;50.904;4.696;2023-11-22T16:13:59;7.20;99.90
8858;DHT22;4465;50.904;4.696;2023-11-22T16:16:25;7.20;99.90
8858;DHT22;4465;50.904;4.696;2023-11-22T16:18:52;7.20;99.90
8858;DHT22;4465;50.904;4.696;2023-11-22T16:21:19;7.20;99.90
8858;DHT22;4465;50.904;4.696;2023-11-22T16:23:45;7.20;99.90
8858;DHT22;4465;50.904;4.696;2023-11-22T16:26:11;7.20;99.90
8858;DHT22;4465;50.904;4.696;2023-11-22T16:28:37;7.20;99.90
8858;DHT22;4465;50.904;4.696;2023-11-22T16:31:04;7.20;99.90
8858;DHT22;4465;50.904;4.696;2023-11-22T16:33:35;7.20;99.90
8858;DHT22;4465;50.904;4.696;2023-11-22T16:36:01;7.20;99.90
8858;DHT22;4465;50.904;4.696;2023-11-22T16:38:27;7.20;99.90
8858;DHT22;4465;50.904;4.696;2023-11-22T16:40:55;7.20;99.90
8858;DHT22;4465;50.904;4.696;2023-11-22T16:43:24;7.10;99.90
8858;DHT22;4465;50.904;4.696;2023-11-22T16:45:50;7.10;99.90
8858;DHT22;4465;50.904;4.696;2023-11-22T16:48:17;7.10;99.90
8858;DHT22;4465;50.904;4.696;2023-11-22T16:50:43;7.10;99.90
8858;DHT22;4465;50.904;4.696;2023-11-22T16:53:12;7.10;99.90
8858;DHT22;4465;50.904;4.696;2023-11-22T16:55:40;7.10;99.90
8858;DHT22;4465;50.904;4.696;2023-11-22T16:58:07;7.10;99.90
8858;DHT22;4465;50.904;4.696;2023-11-22T17:00:33;7.10;99.90
8858;DHT22;4465;50.904;4.696;2023-11-22T17:03:01;7.00;99.90
8858;DHT22;4465;50.904;4.696;2023-11-22T17:05:29;7.00;99.90
8858;DHT22;4465;50.904;4.696;2023-11-22T17:07:57;7.00;99.90
8858;DHT22;4465;50.904;4.696;2023-11-22T17:10:26;7.00;99.90
8858;DHT22;4465;50.904;4.696;2023-11-22T17:12:52;7.00;99.90
8858;DHT22;4465;50.904;4.696;2023-11-22T17:15:17;7.00;99.90
8858;DHT22;4465;50.904;4.696;2023-11-22T17:17:44;7.00;99.90
8858;DHT22;4465;50.904;4.696;2023-11-22T17:20:13;7.00;99.90
8858;DHT22;4465;50.904;4.696;2023-11-22T17:22:44;7.00;99.90
8858;DHT22;4465;50.904;4.696;2023-11-22T17:25:10;7.00;99.90
8858;DHT22;4465;50.904;4.696;2023-11-22T17:27:39;7.00;99.90
8858;DHT22;4465;50.904;4.696;2023-11-22T17:30:09;7.00;99.90
8858;DHT22;4465;50.904;4.696;2023-11-22T17:32:37;7.00;99.90
8858;DHT22;4465;50.904;4.696;2023-11-22T17:35:04;7.00;99.90
8858;DHT22;4465;50.904;4.696;2023-11-22T17:37:33;6.90;99.90
8858;DHT22;4465;50.904;4.696;2023-11-22T17:39:59;7.00;99.90
8858;DHT22;4465;50.904;4.696;2023-11-22T17:42:25;6.90;99.90
8858;DHT22;4465;50.904;4.696;2023-11-22T17:44:54;6.90;99.90
8858;DHT22;4465;50.904;4.696;2023-11-22T17:47:22;6.90;99.90
8858;DHT22;4465;50.904;4.696;2023-11-22T17:49:48;7.00;99.90
8858;DHT22;4465;50.904;4.696;2023-11-22T17:52:17;6.90;99.90
8858;DHT22;4465;50.904;4.696;2023-11-22T17:54:43;6.90;99.90
8858;DHT22;4465;50.904;4.696;2023-11-22T17:57:10;6.90;99.90
8858;DHT22;4465;50.904;4.696;2023-11-22T17:59:37;6.90;99.90
8858;DHT22;4465;50.904;4.696;2023-11-22T18:02:05;6.90;99.90
8858;DHT22;4465;50.904;4.696;2023-11-22T18:04:31;6.90;99.90
8858;DHT22;4465;50.904;4.696;2023-11-22T18:07:00;6.90;99.90
8858;DHT22;4465;50.904;4.696;2023-11-22T18:09:26;6.90;99.90
8858;DHT22;4465;50.904;4.696;2023-11-22T18:11:52;6.90;99.90
8858;DHT22;4465;50.904;4.696;2023-11-22T18:14:18;6.90;99.90
8858;DHT22;4465;50.904;4.696;2023-11-22T18:16:44;6.90;99.90
8858;DHT22;4465;50.904;4.696;2023-11-22T18:19:12;6.90;99.90
8858;DHT22;4465;50.904;4.696;2023-11-22T18:21:41;6.80;99.90
8858;DHT22;4465;50.904;4.696;2023-11-22T18:24:08;6.90;99.90
8858;DHT22;4465;50.904;4.696;2023-11-22T18:26:39;6.90;99.90
8858;DHT22;4465;50.904;4.696;2023-11-22T18:29:05;6.90;99.90
8858;DHT22;4465;50.904;4.696;2023-11-22T18:31:31;6.80;99.90
8858;DHT22;4465;50.904;4.696;2023-11-22T18:33:57;6.80;99.90
8858;DHT22;4465;50.904;4.696;2023-11-22T18:36:23;6.80;99.90
8858;DHT22;4465;50.904;4.696;2023-11-22T18:38:50;6.80;99.90
8858;DHT22;4465;50.904;4.696;2023-11-22T18:41:18;6.70;99.90
8858;DHT22;4465;50.904;4.696;2023-11-22T18:43:47;6.70;99.90
8858;DHT22;4465;50.904;4.696;2023-11-22T18:46:19;6.70;99.90
8858;DHT22;4465;50.904;4.696;2023-11-22T18:48:49;6.70;99.90
8858;DHT22;4465;50.904;4.696;2023-11-22T18:51:15;6.70;99.90
8858;DHT22;4465;50.904;4.696;2023-11-22T18:53:41;6.70;99.90
8858;DHT22;4465;50.904;4.696;2023-11-22T18:56:07;6.60;99.90
8858;DHT22;4465;50.904;4.696;2023-11-22T18:58:35;6.60;99.90
8858;DHT22;4465;50.904;4.696;2023-11-22T19:01:00;6.60;99.90
8858;DHT22;4465;50.904;4.696;2023-11-22T19:03:26;6.60;99.90
8858;DHT22;4465;50.904;4.696;2023-11-22T19:05:55;6.60;99.90
8858;DHT22;4465;50.904;4.696;2023-11-22T19:08:21;6.60;99.90
8858;DHT22;4465;50.904;4.696;2023-11-22T19:10:47;6.60;99.90
8858;DHT22;4465;50.904;4.696;2023-11-22T19:13:13;6.60;99.90
8858;DHT22;4465;50.904;4.696;2023-11-22T19:15:44;6.50;99.90
8858;DHT22;4465;50.904;4.696;2023-11-22T19:18:12;6.50;99.90
8858;DHT22;4465;50.904;4.696;2023-11-22T19:20:38;6.50;99.90
8858;DHT22;4465;50.904;4.696;2023-11-22T19:23:06;6.50;99.90
8858;DHT22;4465;50.904;4.696;2023-11-22T19:25:32;6.50;99.90
8858;DHT22;4465;50.904;4.696;2023-11-22T19:27:59;6.50;99.90
8858;DHT22;4465;50.904;4.696;2023-11-22T19:30:26;6.50;99.90
8858;DHT22;4465;50.904;4.696;2023-11-22T19:32:52;6.50;99.90
8858;DHT22;4465;50.904;4.696;2023-11-22T19:35:18;6.50;99.90
8858;DHT22;4465;50.904;4.696;2023-11-22T19:37:44;6.50;99.90
8858;DHT22;4465;50.904;4.696;2023-11-22T19:40:10;6.50;99.90
8858;DHT22;4465;50.904;4.696;2023-11-22T19:42:36;6.50;99.90
8858;DHT22;4465;50.904;4.696;2023-11-22T19:45:02;6.50;99.90
8858;DHT22;4465;50.904;4.696;2023-11-22T19:47:31;6.50;99.90
8858;DHT22;4465;50.904;4.696;2023-11-22T19:49:57;6.40;99.90
8858;DHT22;4465;50.904;4.696;2023-11-22T19:52:25;6.50;99.90
8858;DHT22;4465;50.904;4.696;2023-11-22T19:54:52;6.40;99.90
8858;DHT22;4465;50.904;4.696;2023-11-22T19:57:18;6.40;99.90
8858;DHT22;4465;50.904;4.696;2023-11-22T19:59:44;6.40;99.90
8858;DHT22;4465;50.904;4.696;2023-11-22T20:02:09;6.40;99.90
8858;DHT22;4465;50.904;4.696;2023-11-22T20:04:35;6.40;99.90
8858;DHT22;4465;50.904;4.696;2023-11-22T20:07:01;6.40;99.90
8858;DHT22;4465;50.904;4.696;2023-11-22T20:09:30;6.30;99.90
8858;DHT22;4465;50.904;4.696;2023-11-22T20:11:56;6.30;99.90
8858;DHT22;4465;50.904;4.696;2023-11-22T20:14:24;6.30;99.90
8858;DHT22;4465;50.904;4.696;2023-11-22T20:16:51;6.30;99.90
8858;DHT22;4465;50.904;4.696;2023-11-22T20:19:17;6.30;99.90
8858;DHT22;4465;50.904;4.696;2023-11-22T20:21:42;6.30;99.90
8858;DHT22;4465;50.904;4.696;2023-11-22T20:24:11;6.30;99.90
8858;DHT22;4465;50.904;4.696;2023-11-22T20:26:37;6.30;99.90
8858;DHT22;4465;50.904;4.696;2023-11-22T20:29:03;6.30;99.90
8858;DHT22;4465;50.904;4.696;2023-11-22T20:31:31;6.30;99.90
8858;DHT22;4465;50.904;4.696;2023-11-22T20:33:59;6.30;99.90
8858;DHT22;4465;50.904;4.696;2023-11-22T20:36:27;6.30;99.90
8858;DHT22;4465;50.904;4.696;2023-11-22T20:38:53;6.30;99.90
8858;DHT22;4465;50.904;4.696;2023-11-22T20:41:20;6.30;99.90
8858;DHT22;4465;50.904;4.696;2023-11-22T20:43:47;6.30;99.90
8858;DHT22;4465;50.904;4.696;2023-11-22T20:46:13;6.30;99.90
8858;DHT22;4465;50.904;4.696;2023-11-22T20:48:41;6.30;99.90
8858;DHT22;4465;50.904;4.696;2023-11-22T20:51:08;6.30;99.90
8858;DHT22;4465;50.904;4.696;2023-11-22T20:53:34;6.30;99.90
8858;DHT22;4465;50.904;4.696;2023-11-22T20:56:05;6.30;99.90
8858;DHT22;4465;50.904;4.696;2023-11-22T20:58:32;6.40;99.90
8858;DHT22;4465;50.904;4.696;2023-11-22T21:00:59;6.40;99.90
8858;DHT22;4465;50.904;4.696;2023-11-22T21:03:27;6.40;99.90
8858;DHT22;4465;50.904;4.696;2023-11-22T21:05:56;6.40;99.90
8858;DHT22;4465;50.904;4.696;2023-11-22T21:08:23;6.40;99.90
8858;DHT22;4465;50.904;4.696;2023-11-22T21:10:49;6.40;99.90
8858;DHT22;4465;50.904;4.696;2023-11-22T21:13:16;6.50;99.90
8858;DHT22;4465;50.904;4.696;2023-11-22T21:15:43;6.40;99.90
8858;DHT22;4465;50.904;4.696;2023-11-22T21:18:11;6.50;99.90
8858;DHT22;4465;50.904;4.696;2023-11-22T21:20:37;6.40;99.90
8858;DHT22;4465;50.904;4.696;2023-11-22T21:23:03;6.40;99.90
8858;DHT22;4465;50.904;4.696;2023-11-22T21:25:29;6.30;99.90
8858;DHT22;4465;50.904;4.696;2023-11-22T21:27:55;6.40;99.90
8858;DHT22;4465;50.904;4.696;2023-11-22T21:30:24;6.30;99.90
8858;DHT22;4465;50.904;4.696;2023-11-22T21:32:50;6.30;99.90
8858;DHT22;4465;50.904;4.696;2023-11-22T21:35:16;6.30;99.90
8858;DHT22;4465;50.904;4.696;2023-11-22T21:37:44;6.30;99.90
8858;DHT22;4465;50.904;4.696;2023-11-22T21:40:10;6.30;99.90
8858;DHT22;4465;50.904;4.696;2023-11-22T21:42:40;6.30;99.90
8858;DHT22;4465;50.904;4.696;2023-11-22T21:45:12;6.30;99.90
8858;DHT22;4465;50.904;4.696;2023-11-22T21:47:38;6.20;99.90
8858;DHT22;4465;50.904;4.696;2023-11-22T21:50:04;6.30;99.90
8858;DHT22;4465;50.904;4.696;2023-11-22T21:52:33;6.30;99.90
8858;DHT22;4465;50.904;4.696;2023-11-22T21:54:59;6.30;99.90
8858;DHT22;4465;50.904;4.696;2023-11-22T21:57:27;6.40;99.90
8858;DHT22;4465;50.904;4.696;2023-11-22T21:59:53;6.40;99.90
8858;DHT22;4465;50.904;4.696;2023-11-22T22:02:20;6.50;99.90
8858;DHT22;4465;50.904;4.696;2023-11-22T22:04:46;6.40;99.90
8858;DHT22;4465;50.904;4.696;2023-11-22T22:07:12;6.50;99.90
8858;DHT22;4465;50.904;4.696;2023-11-22T22:09:42;6.50;99.90
8858;DHT22;4465;50.904;4.696;2023-11-22T22:12:08;6.60;99.90
8858;DHT22;4465;50.904;4.696;2023-11-22T22:14:34;6.60;99.90
8858;DHT22;4465;50.904;4.696;2023-11-22T22:17:02;6.60;99.90
8858;DHT22;4465;50.904;4.696;2023-11-22T22:19:31;6.70;99.90
8858;DHT22;4465;50.904;4.696;2023-11-22T22:21:57;6.70;99.90
8858;DHT22;4465;50.904;4.696;2023-11-22T22:24:24;6.70;99.90
8858;DHT22;4465;50.904;4.696;2023-11-22T22:26:50;6.80;99.90
8858;DHT22;4465;50.904;4.696;2023-11-22T22:29:17;6.90;99.90
8858;DHT22;4465;50.904;4.696;2023-11-22T22:31:45;6.90;99.90
8858;DHT22;4465;50.904;4.696;2023-11-22T22:34:11;6.90;99.90
8858;DHT22;4465;50.904;4.696;2023-11-22T22:36:39;6.90;99.90
8858;DHT22;4465;50.904;4.696;2023-11-22T22:39:07;7.00;99.90
8858;DHT22;4465;50.904;4.696;2023-11-22T22:41:34;7.00;99.90
8858;DHT22;4465;50.904;4.696;2023-11-22T22:44:00;7.00;99.90
8858;DHT22;4465;50.904;4.696;2023-11-22T22:46:26;7.10;99.90
8858;DHT22;4465;50.904;4.696;2023-11-22T22:48:52;7.10;99.90
8858;DHT22;4465;50.904;4.696;2023-11-22T22:51:18;7.10;99.90
8858;DHT22;4465;50.904;4.696;2023-11-22T22:53:46;7.20;99.90
8858;DHT22;4465;50.904;4.696;2023-11-22T22:56:19;7.20;99.90
8858;DHT22;4465;50.904;4.696;2023-11-22T22:58:45;7.20;99.90
8858;DHT22;4465;50.904;4.696;2023-11-22T23:01:11;7.30;99.90
8858;DHT22;4465;50.904;4.696;2023-11-22T23:03:42;7.30;99.90
8858;DHT22;4465;50.904;4.696;2023-11-22T23:06:09;7.30;99.90
8858;DHT22;4465;50.904;4.696;2023-11-22T23:08:38;7.40;99.90
8858;DHT22;4465;50.904;4.696;2023-11-22T23:11:04;7.40;99.90
8858;DHT22;4465;50.904;4.696;2023-11-22T23:13:35;7.50;99.90
8858;DHT22;4465;50.904;4.696;2023-11-22T23:16:01;7.50;99.90
8858;DHT22;4465;50.904;4.696;2023-11-22T23:18:29;7.60;99.90
8858;DHT22;4465;50.904;4.696;2023-11-22T23:20:55;7.70;99.90
8858;DHT22;4465;50.904;4.696;2023-11-22T23:23:21;7.70;99.90
8858;DHT22;4465;50.904;4.696;2023-11-22T23:25:49;7.70;99.90
8858;DHT22;4465;50.904;4.696;2023-11-22T23:28:15;7.80;99.90
8858;DHT22;4465;50.904;4.696;2023-11-22T23:30:41;7.80;99.90
8858;DHT22;4465;50.904;4.696;2023-11-22T23:33:07;7.80;99.90
8858;DHT22;4465;50.904;4.696;2023-11-22T23:35:33;7.80;99.90
8858;DHT22;4465;50.904;4.696;2023-11-22T23:38:02;7.90;99.90
8858;DHT22;4465;50.904;4.696;2023-11-22T23:40:30;7.90;99.90
8858;DHT22;4465;50.904;4.696;2023-11-22T23:42:58;7.90;99.90
8858;DHT22;4465;50.904;4.696;2023-11-22T23:45:31;8.00;99.90
8858;DHT22;4465;50.904;4.696;2023-11-22T23:47:58;8.00;99.90
8858;DHT22;4465;50.904;4.696;2023-11-22T23:50:26;8.00;99.90
8858;DHT22;4465;50.904;4.696;2023-11-22T23:52:54;8.00;99.90
8858;DHT22;4465;50.904;4.696;2023-11-22T23:55:21;8.00;99.90
8858;DHT22;4465;50.904;4.696;2023-11-22T23:57:47;8.00;99.90
